Date,TemperatureHighF,TemperatureAvgF,TemperatureLowF,DewpointHighF,DewpointAvgF,DewpointLowF,HumidityHigh,HumidityAvg,HumidityLow,PressureMaxIn,PressureMinIn,WindSpeedMaxMPH,WindSpeedAvgMPH,GustSpeedMaxMPH,PrecipitationSumIn
2013-1-1,42.2,25.9,12.9,22.8,14.5,8.7,86,65,27,30.26,30.07,7,1,11,0.00
2013-1-2,48.5,26.2,10.9,16.7,11.0,6.5,83,58,20,30.24,29.97,7,0,8,0.00
2013-1-3,36.2,21.4,10.7,13.3,8.2,2.8,83,61,26,30.26,30.05,8,0,16,0.00
2013-1-4,48.9,26.9,11.6,11.8,5.7,-5.5,79,48,10,30.34,30.10,7,0,7,0.00
2013-1-5,56.2,27.6,9.5,12.6,5.9,-10.4,81,51,7,30.46,30.13,5,0,6,0.00
2013-1-6,53.8,32.4,17.7,18.8,12.4,9.1,79,50,17,30.22,29.78,11,1,16,0.00
2013-1-7,53.1,33.9,18.3,20.6,15.2,11.5,83,51,21,29.97,29.72,6,0,8,0.00
2013-1-8,60.5,36.1,20.0,17.0,12.5,6.7,71,44,12,30.12,29.84,8,1,10,0.00
2013-1-9,63.2,35.6,18.1,24.2,15.3,8.2,84,53,12,30.31,29.94,10,0,12,0.00
2013-1-10,51.3,38.7,22.4,28.9,19.1,13.4,75,49,26,29.98,29.50,17,3,22,0.00
2013-1-11,38.5,27.6,13.1,19.4,4.0,-7.8,65,40,14,29.97,29.56,11,2,16,0.00
2013-1-12,35.9,19.9,6.0,13.9,2.1,-5.4,79,51,17,30.11,29.92,7,1,9,0.00
2013-1-13,35.3,18.3,3.0,4.3,0.4,-3.1,80,50,20,30.19,29.93,10,1,11,0.00
2013-1-14,32.9,18.6,5.4,5.3,0.7,-4.7,77,48,23,30.26,29.95,8,1,8,0.00
2013-1-15,40.2,22.2,7.9,7.0,-1.0,-4.9,64,39,17,30.45,30.22,6,1,8,0.00
2013-1-16,53.8,31.0,16.9,14.9,9.6,4.7,67,44,21,30.42,30.13,8,1,8,0.00
2013-1-17,58.4,32.9,14.1,16.9,12.8,9.1,83,50,18,30.43,30.11,6,0,7,0.00
2013-1-18,59.6,32.3,14.4,17.5,13.1,9.1,83,51,19,30.35,30.06,7,0,7,0.00
2013-1-19,61.8,33.4,14.8,18.7,12.9,8.4,83,50,13,30.39,30.06,7,0,7,0.00
2013-1-20,62.6,32.1,12.4,15.8,7.0,-6.5,80,46,6,30.35,30.00,7,0,7,0.00
2013-1-21,63.4,33.8,13.6,13.3,7.2,0.3,79,42,8,30.30,30.00,6,0,8,0.00
2013-1-22,71.5,36.9,16.1,11.1,8.0,5.2,72,39,8,30.33,29.99,5,0,8,0.00
2013-1-23,67.3,40.3,19.7,25.3,16.5,8.4,76,43,15,30.32,30.02,8,0,11,0.00
2013-1-24,52.8,43.8,36.0,45.4,35.0,23.0,91,72,44,30.11,29.97,5,0,6,0.01
2013-1-25,63.9,48.9,38.5,47.6,42.0,36.1,93,80,41,30.07,29.81,3,0,7,0.26
2013-1-26,49.8,48.3,46.2,47.9,46.5,44.6,94,93,92,29.86,29.62,6,1,9,0.87
2013-1-27,52.9,46.7,41.1,47.3,43.1,36.8,94,87,72,29.77,29.65,12,1,13,0.17
2013-1-28,43.8,37.4,25.1,38.4,27.4,19.0,86,68,41,29.86,29.61,12,2,17,0.04
2013-1-29,43.1,30.6,16.7,26.0,18.9,11.9,84,64,37,30.08,29.86,8,1,11,0.02
2013-1-30,51.3,36.1,25.1,26.9,22.7,18.8,86,61,32,30.23,30.05,8,1,10,0.00
2013-1-31,61.2,40.1,26.3,32.0,26.1,19.0,88,63,21,30.22,29.99,7,0,7,0.00